sensor_id;sensor_type;location;lat;lon;timestamp;P1;durP1;ratioP1;P2;durP2;ratioP2
65896;SDS011;52677;50.898;10.854;2023-04-24T00:00:35;1.17;;;0.90;;
65896;SDS011;52677;50.898;10.854;2023-04-24T00:02:36;0.93;;;0.80;;
65896;SDS011;52677;50.898;10.854;2023-04-24T00:04:40;2.13;;;0.98;;
65896;SDS011;52677;50.898;10.854;2023-04-24T00:06:44;1.55;;;0.90;;
65896;SDS011;52677;50.898;10.854;2023-04-24T00:08:49;1.10;;;1.00;;
65896;SDS011;52677;50.898;10.854;2023-04-24T00:10:49;0.98;;;0.88;;
65896;SDS011;52677;50.898;10.854;2023-04-24T00:12:50;1.15;;;0.90;;
65896;SDS011;52677;50.898;10.854;2023-04-24T00:14:50;1.60;;;0.90;;
65896;SDS011;52677;50.898;10.854;2023-04-24T00:16:51;1.15;;;0.90;;
65896;SDS011;52677;50.898;10.854;2023-04-24T00:18:51;2.42;;;1.10;;
65896;SDS011;52677;50.898;10.854;2023-04-24T00:20:56;1.33;;;1.00;;
65896;SDS011;52677;50.898;10.854;2023-04-24T00:22:56;3.55;;;1.10;;
65896;SDS011;52677;50.898;10.854;2023-04-24T00:24:56;2.15;;;1.05;;
65896;SDS011;52677;50.898;10.854;2023-04-24T00:26:57;1.10;;;1.00;;
65896;SDS011;52677;50.898;10.854;2023-04-24T00:28:57;3.35;;;1.10;;
65896;SDS011;52677;50.898;10.854;2023-04-24T00:30:57;1.58;;;0.90;;
65896;SDS011;52677;50.898;10.854;2023-04-24T00:32:58;1.60;;;1.00;;
65896;SDS011;52677;50.898;10.854;2023-04-24T00:34:58;1.50;;;1.38;;
65896;SDS011;52677;50.898;10.854;2023-04-24T00:36:58;0.98;;;0.90;;
65896;SDS011;52677;50.898;10.854;2023-04-24T00:38:59;2.05;;;1.02;;
65896;SDS011;52677;50.898;10.854;2023-04-24T00:40:59;1.98;;;1.08;;
65896;SDS011;52677;50.898;10.854;2023-04-24T00:43:00;1.85;;;1.13;;
65896;SDS011;52677;50.898;10.854;2023-04-24T00:45:00;2.13;;;1.13;;
65896;SDS011;52677;50.898;10.854;2023-04-24T00:47:03;1.92;;;1.08;;
65896;SDS011;52677;50.898;10.854;2023-04-24T00:49:04;2.33;;;1.02;;
65896;SDS011;52677;50.898;10.854;2023-04-24T00:51:06;2.13;;;1.10;;
65896;SDS011;52677;50.898;10.854;2023-04-24T00:53:06;2.67;;;0.98;;
65896;SDS011;52677;50.898;10.854;2023-04-24T00:55:07;1.95;;;1.00;;
65896;SDS011;52677;50.898;10.854;2023-04-24T00:57:07;1.00;;;0.85;;
65896;SDS011;52677;50.898;10.854;2023-04-24T00:59:08;1.30;;;1.17;;
65896;SDS011;52677;50.898;10.854;2023-04-24T01:01:09;1.73;;;1.25;;
65896;SDS011;52677;50.898;10.854;2023-04-24T01:03:09;2.17;;;1.20;;
65896;SDS011;52677;50.898;10.854;2023-04-24T01:05:14;1.05;;;0.85;;
65896;SDS011;52677;50.898;10.854;2023-04-24T01:07:15;1.23;;;1.08;;
65896;SDS011;52677;50.898;10.854;2023-04-24T01:09:17;1.85;;;1.20;;
65896;SDS011;52677;50.898;10.854;2023-04-24T01:11:18;1.20;;;1.10;;
65896;SDS011;52677;50.898;10.854;2023-04-24T01:13:19;1.40;;;1.20;;
65896;SDS011;52677;50.898;10.854;2023-04-24T01:15:20;2.67;;;1.17;;
65896;SDS011;52677;50.898;10.854;2023-04-24T01:17:21;1.42;;;1.10;;
65896;SDS011;52677;50.898;10.854;2023-04-24T01:19:21;3.83;;;1.50;;
65896;SDS011;52677;50.898;10.854;2023-04-24T01:21:21;2.28;;;1.25;;
65896;SDS011;52677;50.898;10.854;2023-04-24T01:23:27;1.88;;;1.45;;
65896;SDS011;52677;50.898;10.854;2023-04-24T01:25:28;1.60;;;1.27;;
65896;SDS011;52677;50.898;10.854;2023-04-24T01:27:29;1.45;;;1.27;;
65896;SDS011;52677;50.898;10.854;2023-04-24T01:29:30;1.50;;;1.10;;
65896;SDS011;52677;50.898;10.854;2023-04-24T01:31:37;1.23;;;1.10;;
65896;SDS011;52677;50.898;10.854;2023-04-24T01:33:40;4.10;;;1.50;;
65896;SDS011;52677;50.898;10.854;2023-04-24T01:35:41;1.27;;;1.17;;
65896;SDS011;52677;50.898;10.854;2023-04-24T01:37:42;1.52;;;1.10;;
65896;SDS011;52677;50.898;10.854;2023-04-24T01:39:43;3.15;;;1.30;;
65896;SDS011;52677;50.898;10.854;2023-04-24T01:41:43;1.10;;;1.00;;
65896;SDS011;52677;50.898;10.854;2023-04-24T01:43:44;1.45;;;1.20;;
65896;SDS011;52677;50.898;10.854;2023-04-24T01:45:44;1.65;;;1.30;;
65896;SDS011;52677;50.898;10.854;2023-04-24T01:47:45;1.30;;;1.20;;
65896;SDS011;52677;50.898;10.854;2023-04-24T01:49:46;4.85;;;1.30;;
65896;SDS011;52677;50.898;10.854;2023-04-24T01:51:48;1.27;;;1.17;;
65896;SDS011;52677;50.898;10.854;2023-04-24T01:53:48;2.25;;;1.40;;
65896;SDS011;52677;50.898;10.854;2023-04-24T01:55:48;1.77;;;1.20;;
65896;SDS011;52677;50.898;10.854;2023-04-24T01:57:49;2.17;;;1.30;;
65896;SDS011;52677;50.898;10.854;2023-04-24T01:59:52;2.13;;;1.40;;
65896;SDS011;52677;50.898;10.854;2023-04-24T02:01:52;1.33;;;1.20;;
65896;SDS011;52677;50.898;10.854;2023-04-24T02:03:52;2.40;;;1.50;;
65896;SDS011;52677;50.898;10.854;2023-04-24T02:05:52;1.73;;;1.40;;
65896;SDS011;52677;50.898;10.854;2023-04-24T02:07:53;1.50;;;1.20;;
65896;SDS011;52677;50.898;10.854;2023-04-24T02:09:54;1.88;;;1.48;;
65896;SDS011;52677;50.898;10.854;2023-04-24T02:11:55;2.65;;;1.67;;
65896;SDS011;52677;50.898;10.854;2023-04-24T02:13:56;1.25;;;1.13;;
65896;SDS011;52677;50.898;10.854;2023-04-24T02:15:57;1.50;;;1.40;;
65896;SDS011;52677;50.898;10.854;2023-04-24T02:17:58;1.83;;;1.63;;
65896;SDS011;52677;50.898;10.854;2023-04-24T02:19:58;2.35;;;1.70;;
65896;SDS011;52677;50.898;10.854;2023-04-24T02:21:59;1.70;;;1.60;;
65896;SDS011;52677;50.898;10.854;2023-04-24T02:23:59;2.60;;;1.50;;
65896;SDS011;52677;50.898;10.854;2023-04-24T02:25:59;3.15;;;1.77;;
65896;SDS011;52677;50.898;10.854;2023-04-24T02:28:00;2.75;;;1.70;;
65896;SDS011;52677;50.898;10.854;2023-04-24T02:30:00;2.42;;;1.70;;
65896;SDS011;52677;50.898;10.854;2023-04-24T02:32:00;3.05;;;1.70;;
65896;SDS011;52677;50.898;10.854;2023-04-24T02:34:01;3.33;;;2.00;;
65896;SDS011;52677;50.898;10.854;2023-04-24T02:36:01;2.28;;;1.80;;
65896;SDS011;52677;50.898;10.854;2023-04-24T02:38:03;2.88;;;2.08;;
65896;SDS011;52677;50.898;10.854;2023-04-24T02:40:03;2.17;;;1.90;;
65896;SDS011;52677;50.898;10.854;2023-04-24T02:42:05;3.00;;;1.90;;
65896;SDS011;52677;50.898;10.854;2023-04-24T02:44:07;2.17;;;1.98;;
65896;SDS011;52677;50.898;10.854;2023-04-24T02:46:08;2.90;;;2.10;;
65896;SDS011;52677;50.898;10.854;2023-04-24T02:48:08;2.42;;;2.03;;
65896;SDS011;52677;50.898;10.854;2023-04-24T02:50:08;4.60;;;1.98;;
65896;SDS011;52677;50.898;10.854;2023-04-24T02:52:09;5.20;;;2.35;;
65896;SDS011;52677;50.898;10.854;2023-04-24T02:54:10;2.92;;;2.35;;
65896;SDS011;52677;50.898;10.854;2023-04-24T02:56:10;4.00;;;1.85;;
65896;SDS011;52677;50.898;10.854;2023-04-24T02:58:12;3.88;;;2.20;;
65896;SDS011;52677;50.898;10.854;2023-04-24T03:00:13;3.30;;;2.20;;
65896;SDS011;52677;50.898;10.854;2023-04-24T03:02:13;3.65;;;2.00;;
65896;SDS011;52677;50.898;10.854;2023-04-24T03:04:13;5.65;;;2.55;;
65896;SDS011;52677;50.898;10.854;2023-04-24T03:06:15;2.38;;;2.13;;
65896;SDS011;52677;50.898;10.854;2023-04-24T03:08:15;2.20;;;2.00;;
65896;SDS011;52677;50.898;10.854;2023-04-24T03:10:16;2.60;;;2.03;;
65896;SDS011;52677;50.898;10.854;2023-04-24T03:12:16;3.90;;;2.28;;
65896;SDS011;52677;50.898;10.854;2023-04-24T03:14:17;3.05;;;2.40;;
65896;SDS011;52677;50.898;10.854;2023-04-24T03:16:18;2.70;;;2.20;;
65896;SDS011;52677;50.898;10.854;2023-04-24T03:18:18;3.40;;;2.42;;
65896;SDS011;52677;50.898;10.854;2023-04-24T03:20:19;5.03;;;2.03;;
65896;SDS011;52677;50.898;10.854;2023-04-24T03:22:19;2.40;;;1.77;;
65896;SDS011;52677;50.898;10.854;2023-04-24T03:24:20;4.05;;;2.50;;
65896;SDS011;52677;50.898;10.854;2023-04-24T03:26:20;2.63;;;1.98;;
65896;SDS011;52677;50.898;10.854;2023-04-24T03:28:21;2.38;;;2.00;;
65896;SDS011;52677;50.898;10.854;2023-04-24T03:30:21;2.97;;;1.80;;
65896;SDS011;52677;50.898;10.854;2023-04-24T03:32:21;1.65;;;1.55;;
65896;SDS011;52677;50.898;10.854;2023-04-24T03:34:22;2.88;;;1.80;;
65896;SDS011;52677;50.898;10.854;2023-04-24T03:36:23;2.90;;;1.90;;
65896;SDS011;52677;50.898;10.854;2023-04-24T03:38:23;1.90;;;1.70;;
65896;SDS011;52677;50.898;10.854;2023-04-24T03:40:23;1.77;;;1.50;;
65896;SDS011;52677;50.898;10.854;2023-04-24T03:42:23;2.53;;;1.80;;
65896;SDS011;52677;50.898;10.854;2023-04-24T03:44:24;2.47;;;1.77;;
65896;SDS011;52677;50.898;10.854;2023-04-24T03:46:24;2.25;;;1.55;;
65896;SDS011;52677;50.898;10.854;2023-04-24T03:48:24;3.10;;;1.80;;
65896;SDS011;52677;50.898;10.854;2023-04-24T03:50:25;1.40;;;1.30;;
65896;SDS011;52677;50.898;10.854;2023-04-24T03:52:26;2.15;;;1.58;;
65896;SDS011;52677;50.898;10.854;2023-04-24T03:54:26;1.40;;;1.20;;
65896;SDS011;52677;50.898;10.854;2023-04-24T03:56:27;1.40;;;1.25;;
65896;SDS011;52677;50.898;10.854;2023-04-24T03:58:27;3.30;;;1.50;;
65896;SDS011;52677;50.898;10.854;2023-04-24T04:00:28;2.95;;;1.50;;
65896;SDS011;52677;50.898;10.854;2023-04-24T04:02:28;3.17;;;1.70;;
65896;SDS011;52677;50.898;10.854;2023-04-24T04:04:28;1.73;;;1.42;;
65896;SDS011;52677;50.898;10.854;2023-04-24T04:06:28;1.58;;;1.30;;
65896;SDS011;52677;50.898;10.854;2023-04-24T04:08:30;6.30;;;2.17;;
65896;SDS011;52677;50.898;10.854;2023-04-24T04:10:31;1.80;;;1.50;;
65896;SDS011;52677;50.898;10.854;2023-04-24T04:12:31;4.28;;;1.83;;
65896;SDS011;52677;50.898;10.854;2023-04-24T04:14:31;1.73;;;1.23;;
65896;SDS011;52677;50.898;10.854;2023-04-24T04:16:32;2.63;;;1.52;;
65896;SDS011;52677;50.898;10.854;2023-04-24T04:18:32;2.63;;;2.00;;
65896;SDS011;52677;50.898;10.854;2023-04-24T04:20:33;3.10;;;1.60;;
65896;SDS011;52677;50.898;10.854;2023-04-24T04:22:33;4.35;;;2.15;;
65896;SDS011;52677;50.898;10.854;2023-04-24T04:24:34;1.88;;;1.65;;
65896;SDS011;52677;50.898;10.854;2023-04-24T04:26:38;3.35;;;1.55;;
65896;SDS011;52677;50.898;10.854;2023-04-24T04:28:38;2.22;;;1.40;;
65896;SDS011;52677;50.898;10.854;2023-04-24T04:30:39;2.53;;;1.50;;
65896;SDS011;52677;50.898;10.854;2023-04-24T04:32:40;2.40;;;1.40;;
65896;SDS011;52677;50.898;10.854;2023-04-24T04:34:40;4.07;;;1.52;;
65896;SDS011;52677;50.898;10.854;2023-04-24T04:36:40;2.50;;;1.52;;
65896;SDS011;52677;50.898;10.854;2023-04-24T04:38:41;3.65;;;1.75;;
65896;SDS011;52677;50.898;10.854;2023-04-24T04:40:43;3.92;;;1.60;;
65896;SDS011;52677;50.898;10.854;2023-04-24T04:42:43;3.53;;;1.83;;
65896;SDS011;52677;50.898;10.854;2023-04-24T04:44:45;2.17;;;1.63;;
65896;SDS011;52677;50.898;10.854;2023-04-24T04:46:46;1.70;;;1.50;;
65896;SDS011;52677;50.898;10.854;2023-04-24T04:48:47;2.33;;;1.48;;
65896;SDS011;52677;50.898;10.854;2023-04-24T04:50:47;2.00;;;1.80;;
65896;SDS011;52677;50.898;10.854;2023-04-24T04:52:48;1.95;;;1.67;;
65896;SDS011;52677;50.898;10.854;2023-04-24T04:54:48;2.70;;;1.73;;
65896;SDS011;52677;50.898;10.854;2023-04-24T04:56:51;2.20;;;1.50;;
65896;SDS011;52677;50.898;10.854;2023-04-24T04:58:51;3.75;;;2.08;;
65896;SDS011;52677;50.898;10.854;2023-04-24T05:00:52;3.10;;;1.52;;
65896;SDS011;52677;50.898;10.854;2023-04-24T05:02:53;2.28;;;1.60;;
65896;SDS011;52677;50.898;10.854;2023-04-24T05:04:53;2.28;;;1.60;;
65896;SDS011;52677;50.898;10.854;2023-04-24T05:06:53;1.77;;;1.50;;
65896;SDS011;52677;50.898;10.854;2023-04-24T05:08:53;3.08;;;1.80;;
65896;SDS011;52677;50.898;10.854;2023-04-24T05:10:57;3.13;;;1.73;;
65896;SDS011;52677;50.898;10.854;2023-04-24T05:12:57;1.73;;;1.55;;
65896;SDS011;52677;50.898;10.854;2023-04-24T05:14:57;2.67;;;1.65;;
65896;SDS011;52677;50.898;10.854;2023-04-24T05:16:57;2.30;;;1.80;;
65896;SDS011;52677;50.898;10.854;2023-04-24T05:18:58;2.78;;;1.67;;
65896;SDS011;52677;50.898;10.854;2023-04-24T05:20:58;8.57;;;2.33;;
65896;SDS011;52677;50.898;10.854;2023-04-24T05:22:58;3.10;;;1.70;;
65896;SDS011;52677;50.898;10.854;2023-04-24T05:24:59;1.55;;;1.45;;
65896;SDS011;52677;50.898;10.854;2023-04-24T05:26:59;1.67;;;1.50;;
65896;SDS011;52677;50.898;10.854;2023-04-24T05:28:59;2.17;;;1.30;;
65896;SDS011;52677;50.898;10.854;2023-04-24T05:31:00;1.30;;;1.20;;
65896;SDS011;52677;50.898;10.854;2023-04-24T05:33:01;1.42;;;1.25;;
65896;SDS011;52677;50.898;10.854;2023-04-24T05:35:01;3.47;;;1.50;;
65896;SDS011;52677;50.898;10.854;2023-04-24T05:37:01;1.30;;;1.20;;
65896;SDS011;52677;50.898;10.854;2023-04-24T05:39:02;2.03;;;1.30;;
65896;SDS011;52677;50.898;10.854;2023-04-24T05:41:04;1.98;;;1.38;;
65896;SDS011;52677;50.898;10.854;2023-04-24T05:43:05;2.47;;;1.20;;
65896;SDS011;52677;50.898;10.854;2023-04-24T05:45:05;2.28;;;1.40;;
65896;SDS011;52677;50.898;10.854;2023-04-24T05:47:06;1.73;;;1.40;;
65896;SDS011;52677;50.898;10.854;2023-04-24T05:49:07;1.90;;;1.45;;
65896;SDS011;52677;50.898;10.854;2023-04-24T05:51:08;4.93;;;1.25;;
65896;SDS011;52677;50.898;10.854;2023-04-24T05:53:10;1.48;;;1.30;;
65896;SDS011;52677;50.898;10.854;2023-04-24T05:55:10;1.48;;;1.23;;
65896;SDS011;52677;50.898;10.854;2023-04-24T05:57:10;3.22;;;1.33;;
65896;SDS011;52677;50.898;10.854;2023-04-24T05:59:11;3.20;;;2.05;;
65896;SDS011;52677;50.898;10.854;2023-04-24T06:01:11;3.00;;;1.80;;
65896;SDS011;52677;50.898;10.854;2023-04-24T06:03:12;4.68;;;1.30;;
65896;SDS011;52677;50.898;10.854;2023-04-24T06:05:12;1.20;;;1.10;;
65896;SDS011;52677;50.898;10.854;2023-04-24T06:07:12;2.10;;;1.20;;
65896;SDS011;52677;50.898;10.854;2023-04-24T06:09:13;1.05;;;0.95;;
65896;SDS011;52677;50.898;10.854;2023-04-24T06:11:13;2.38;;;1.30;;
65896;SDS011;52677;50.898;10.854;2023-04-24T06:13:14;0.88;;;0.88;;
65896;SDS011;52677;50.898;10.854;2023-04-24T06:15:14;2.03;;;1.00;;
65896;SDS011;52677;50.898;10.854;2023-04-24T06:17:15;1.45;;;1.25;;
65896;SDS011;52677;50.898;10.854;2023-04-24T06:19:15;2.90;;;1.10;;
65896;SDS011;52677;50.898;10.854;2023-04-24T06:21:16;1.70;;;1.08;;
65896;SDS011;52677;50.898;10.854;2023-04-24T06:23:16;1.17;;;1.08;;
65896;SDS011;52677;50.898;10.854;2023-04-24T06:25:17;4.15;;;1.20;;
65896;SDS011;52677;50.898;10.854;2023-04-24T06:27:19;1.20;;;1.10;;
65896;SDS011;52677;50.898;10.854;2023-04-24T06:29:19;1.40;;;1.10;;
65896;SDS011;52677;50.898;10.854;2023-04-24T06:31:20;1.67;;;1.13;;
65896;SDS011;52677;50.898;10.854;2023-04-24T06:33:20;1.95;;;1.20;;
65896;SDS011;52677;50.898;10.854;2023-04-24T06:35:21;2.20;;;1.20;;
65896;SDS011;52677;50.898;10.854;2023-04-24T06:37:21;2.08;;;1.88;;
65896;SDS011;52677;50.898;10.854;2023-04-24T06:39:21;1.38;;;1.10;;
65896;SDS011;52677;50.898;10.854;2023-04-24T06:41:22;2.08;;;1.30;;
65896;SDS011;52677;50.898;10.854;2023-04-24T06:43:22;1.52;;;1.25;;
65896;SDS011;52677;50.898;10.854;2023-04-24T06:45:22;2.45;;;1.30;;
65896;SDS011;52677;50.898;10.854;2023-04-24T06:47:23;1.67;;;1.20;;
65896;SDS011;52677;50.898;10.854;2023-04-24T06:49:23;2.03;;;1.50;;
65896;SDS011;52677;50.898;10.854;2023-04-24T06:51:24;2.17;;;1.40;;
65896;SDS011;52677;50.898;10.854;2023-04-24T06:53:25;2.93;;;1.70;;
65896;SDS011;52677;50.898;10.854;2023-04-24T06:55:26;2.08;;;1.40;;
65896;SDS011;52677;50.898;10.854;2023-04-24T06:57:26;2.10;;;1.65;;
65896;SDS011;52677;50.898;10.854;2023-04-24T06:59:26;2.05;;;1.30;;
65896;SDS011;52677;50.898;10.854;2023-04-24T07:01:28;3.00;;;1.63;;
65896;SDS011;52677;50.898;10.854;2023-04-24T07:03:28;1.52;;;1.40;;
65896;SDS011;52677;50.898;10.854;2023-04-24T07:05:28;2.25;;;1.88;;
65896;SDS011;52677;50.898;10.854;2023-04-24T07:07:29;2.40;;;1.80;;
65896;SDS011;52677;50.898;10.854;2023-04-24T07:09:30;3.72;;;1.92;;
65896;SDS011;52677;50.898;10.854;2023-04-24T07:11:30;2.63;;;1.80;;
65896;SDS011;52677;50.898;10.854;2023-04-24T07:13:31;3.42;;;1.70;;
65896;SDS011;52677;50.898;10.854;2023-04-24T07:15:31;2.63;;;1.70;;
65896;SDS011;52677;50.898;10.854;2023-04-24T07:17:32;2.03;;;1.80;;
65896;SDS011;52677;50.898;10.854;2023-04-24T07:19:33;3.72;;;1.60;;
65896;SDS011;52677;50.898;10.854;2023-04-24T07:21:34;4.33;;;2.57;;
65896;SDS011;52677;50.898;10.854;2023-04-24T07:23:34;2.45;;;1.70;;
65896;SDS011;52677;50.898;10.854;2023-04-24T07:25:35;6.85;;;1.80;;
65896;SDS011;52677;50.898;10.854;2023-04-24T07:27:35;2.50;;;2.00;;
65896;SDS011;52677;50.898;10.854;2023-04-24T07:29:36;3.17;;;1.63;;
65896;SDS011;52677;50.898;10.854;2023-04-24T07:31:36;3.20;;;1.42;;
65896;SDS011;52677;50.898;10.854;2023-04-24T07:33:36;3.38;;;1.48;;
65896;SDS011;52677;50.898;10.854;2023-04-24T07:35:37;1.85;;;1.50;;
65896;SDS011;52677;50.898;10.854;2023-04-24T07:37:37;2.78;;;1.63;;
65896;SDS011;52677;50.898;10.854;2023-04-24T07:39:37;2.05;;;1.85;;
65896;SDS011;52677;50.898;10.854;2023-04-24T07:41:38;3.42;;;2.13;;
65896;SDS011;52677;50.898;10.854;2023-04-24T07:43:38;4.45;;;2.10;;
65896;SDS011;52677;50.898;10.854;2023-04-24T07:45:38;2.80;;;1.90;;
65896;SDS011;52677;50.898;10.854;2023-04-24T07:47:40;3.60;;;2.00;;
65896;SDS011;52677;50.898;10.854;2023-04-24T07:49:43;2.20;;;1.58;;
65896;SDS011;52677;50.898;10.854;2023-04-24T07:51:44;1.90;;;1.60;;
65896;SDS011;52677;50.898;10.854;2023-04-24T07:53:45;2.03;;;1.42;;
65896;SDS011;52677;50.898;10.854;2023-04-24T07:55:45;2.63;;;2.00;;
65896;SDS011;52677;50.898;10.854;2023-04-24T07:57:46;2.08;;;1.70;;
65896;SDS011;52677;50.898;10.854;2023-04-24T07:59:46;2.83;;;1.95;;
65896;SDS011;52677;50.898;10.854;2023-04-24T08:01:46;4.60;;;1.52;;
65896;SDS011;52677;50.898;10.854;2023-04-24T08:03:47;1.92;;;1.60;;
65896;SDS011;52677;50.898;10.854;2023-04-24T08:05:47;1.67;;;1.30;;
65896;SDS011;52677;50.898;10.854;2023-04-24T08:07:47;2.38;;;1.73;;
65896;SDS011;52677;50.898;10.854;2023-04-24T08:09:50;2.13;;;1.58;;
65896;SDS011;52677;50.898;10.854;2023-04-24T08:11:50;1.88;;;1.50;;
65896;SDS011;52677;50.898;10.854;2023-04-24T08:13:50;2.28;;;1.70;;
65896;SDS011;52677;50.898;10.854;2023-04-24T08:15:51;3.00;;;1.55;;
65896;SDS011;52677;50.898;10.854;2023-04-24T08:17:51;1.95;;;1.55;;
65896;SDS011;52677;50.898;10.854;2023-04-24T08:19:52;2.17;;;1.70;;
65896;SDS011;52677;50.898;10.854;2023-04-24T08:21:58;4.15;;;1.60;;
65896;SDS011;52677;50.898;10.854;2023-04-24T08:23:59;3.78;;;1.60;;
65896;SDS011;52677;50.898;10.854;2023-04-24T08:25:59;1.60;;;1.50;;
65896;SDS011;52677;50.898;10.854;2023-04-24T08:27:59;1.83;;;1.27;;
65896;SDS011;52677;50.898;10.854;2023-04-24T08:30:00;1.60;;;1.50;;
65896;SDS011;52677;50.898;10.854;2023-04-24T08:32:00;2.05;;;1.58;;
65896;SDS011;52677;50.898;10.854;2023-04-24T08:34:00;2.55;;;1.85;;
65896;SDS011;52677;50.898;10.854;2023-04-24T08:36:04;2.05;;;1.70;;
65896;SDS011;52677;50.898;10.854;2023-04-24T08:38:05;1.70;;;1.60;;
65896;SDS011;52677;50.898;10.854;2023-04-24T08:40:06;3.83;;;1.70;;
65896;SDS011;52677;50.898;10.854;2023-04-24T08:42:14;3.05;;;1.88;;
65896;SDS011;52677;50.898;10.854;2023-04-24T08:44:15;3.40;;;1.77;;
65896;SDS011;52677;50.898;10.854;2023-04-24T08:46:16;2.25;;;1.50;;
65896;SDS011;52677;50.898;10.854;2023-04-24T08:48:19;2.80;;;1.52;;
65896;SDS011;52677;50.898;10.854;2023-04-24T08:50:21;5.32;;;1.85;;
65896;SDS011;52677;50.898;10.854;2023-04-24T08:52:22;3.08;;;1.88;;
65896;SDS011;52677;50.898;10.854;2023-04-24T08:54:23;2.53;;;1.42;;
65896;SDS011;52677;50.898;10.854;2023-04-24T08:56:24;2.28;;;1.70;;
65896;SDS011;52677;50.898;10.854;2023-04-24T08:58:25;3.72;;;1.58;;
65896;SDS011;52677;50.898;10.854;2023-04-24T09:00:26;5.72;;;1.75;;
65896;SDS011;52677;50.898;10.854;2023-04-24T09:02:27;2.67;;;1.73;;
65896;SDS011;52677;50.898;10.854;2023-04-24T09:04:28;2.90;;;1.67;;
65896;SDS011;52677;50.898;10.854;2023-04-24T09:06:29;2.15;;;1.65;;
65896;SDS011;52677;50.898;10.854;2023-04-24T09:08:32;3.47;;;1.85;;
65896;SDS011;52677;50.898;10.854;2023-04-24T09:10:33;2.92;;;1.50;;
65896;SDS011;52677;50.898;10.854;2023-04-24T09:12:34;2.75;;;1.50;;
65896;SDS011;52677;50.898;10.854;2023-04-24T09:14:35;2.28;;;1.50;;
65896;SDS011;52677;50.898;10.854;2023-04-24T09:16:39;3.00;;;2.20;;
65896;SDS011;52677;50.898;10.854;2023-04-24T09:18:40;3.83;;;2.53;;
65896;SDS011;52677;50.898;10.854;2023-04-24T09:25:04;3.20;;;1.73;;
65896;SDS011;52677;50.898;10.854;2023-04-24T09:27:06;1.55;;;1.35;;
65896;SDS011;52677;50.898;10.854;2023-04-24T09:29:07;2.38;;;1.88;;
65896;SDS011;52677;50.898;10.854;2023-04-24T09:31:08;2.35;;;1.60;;
65896;SDS011;52677;50.898;10.854;2023-04-24T09:33:13;2.20;;;1.80;;
65896;SDS011;52677;50.898;10.854;2023-04-24T09:35:15;2.17;;;1.63;;
65896;SDS011;52677;50.898;10.854;2023-04-24T09:37:28;3.53;;;1.80;;
65896;SDS011;52677;50.898;10.854;2023-04-24T09:39:29;2.67;;;1.73;;
65896;SDS011;52677;50.898;10.854;2023-04-24T09:41:29;3.70;;;2.00;;
65896;SDS011;52677;50.898;10.854;2023-04-24T09:43:32;2.45;;;1.67;;
65896;SDS011;52677;50.898;10.854;2023-04-24T09:45:36;3.67;;;1.40;;
65896;SDS011;52677;50.898;10.854;2023-04-24T09:47:38;2.13;;;1.50;;
65896;SDS011;52677;50.898;10.854;2023-04-24T09:49:39;3.10;;;2.10;;
65896;SDS011;52677;50.898;10.854;2023-04-24T09:51:41;4.65;;;2.50;;
65896;SDS011;52677;50.898;10.854;2023-04-24T09:53:46;2.97;;;2.10;;
65896;SDS011;52677;50.898;10.854;2023-04-24T09:55:47;3.35;;;1.60;;
65896;SDS011;52677;50.898;10.854;2023-04-24T09:57:54;3.85;;;1.75;;
65896;SDS011;52677;50.898;10.854;2023-04-24T09:59:56;2.50;;;1.75;;
65896;SDS011;52677;50.898;10.854;2023-04-24T10:01:57;2.92;;;2.17;;
65896;SDS011;52677;50.898;10.854;2023-04-24T10:03:59;2.53;;;2.05;;
65896;SDS011;52677;50.898;10.854;2023-04-24T10:06:00;2.78;;;2.05;;
65896;SDS011;52677;50.898;10.854;2023-04-24T10:10:03;3.17;;;1.88;;
65896;SDS011;52677;50.898;10.854;2023-04-24T10:12:05;3.42;;;1.95;;
65896;SDS011;52677;50.898;10.854;2023-04-24T10:14:05;2.58;;;1.95;;
65896;SDS011;52677;50.898;10.854;2023-04-24T10:16:06;2.65;;;1.88;;
65896;SDS011;52677;50.898;10.854;2023-04-24T10:18:07;3.15;;;1.83;;
65896;SDS011;52677;50.898;10.854;2023-04-24T10:20:09;2.90;;;2.38;;
65896;SDS011;52677;50.898;10.854;2023-04-24T10:22:10;3.92;;;2.17;;
65896;SDS011;52677;50.898;10.854;2023-04-24T10:24:17;3.13;;;2.28;;
65896;SDS011;52677;50.898;10.854;2023-04-24T10:26:20;3.05;;;2.28;;
65896;SDS011;52677;50.898;10.854;2023-04-24T10:28:22;4.40;;;2.38;;
65896;SDS011;52677;50.898;10.854;2023-04-24T10:30:24;2.85;;;2.25;;
65896;SDS011;52677;50.898;10.854;2023-04-24T10:32:26;3.75;;;2.35;;
65896;SDS011;52677;50.898;10.854;2023-04-24T10:34:26;3.55;;;2.28;;
65896;SDS011;52677;50.898;10.854;2023-04-24T10:36:28;3.47;;;1.90;;
65896;SDS011;52677;50.898;10.854;2023-04-24T10:38:32;3.35;;;2.47;;
65896;SDS011;52677;50.898;10.854;2023-04-24T10:40:34;4.20;;;2.28;;
65896;SDS011;52677;50.898;10.854;2023-04-24T10:42:39;3.25;;;2.38;;
65896;SDS011;52677;50.898;10.854;2023-04-24T10:44:41;3.25;;;2.47;;
65896;SDS011;52677;50.898;10.854;2023-04-24T10:46:45;4.70;;;2.63;;
65896;SDS011;52677;50.898;10.854;2023-04-24T10:48:53;3.13;;;2.38;;
65896;SDS011;52677;50.898;10.854;2023-04-24T10:50:54;2.50;;;2.10;;
65896;SDS011;52677;50.898;10.854;2023-04-24T10:53:04;3.20;;;2.50;;
65896;SDS011;52677;50.898;10.854;2023-04-24T10:55:06;2.50;;;2.30;;
65896;SDS011;52677;50.898;10.854;2023-04-24T10:59:24;2.97;;;2.03;;
65896;SDS011;52677;50.898;10.854;2023-04-24T11:01:29;3.75;;;2.42;;
65896;SDS011;52677;50.898;10.854;2023-04-24T11:03:32;4.32;;;2.30;;
65896;SDS011;52677;50.898;10.854;2023-04-24T11:05:50;2.83;;;2.50;;
65896;SDS011;52677;50.898;10.854;2023-04-24T11:10:24;4.15;;;2.40;;
65896;SDS011;52677;50.898;10.854;2023-04-24T11:12:26;2.83;;;2.30;;
65896;SDS011;52677;50.898;10.854;2023-04-24T11:14:26;2.50;;;2.20;;
65896;SDS011;52677;50.898;10.854;2023-04-24T11:16:28;2.75;;;2.08;;
65896;SDS011;52677;50.898;10.854;2023-04-24T11:18:44;3.92;;;1.80;;
65896;SDS011;52677;50.898;10.854;2023-04-24T11:20:45;2.88;;;2.03;;
65896;SDS011;52677;50.898;10.854;2023-04-24T11:22:46;3.63;;;2.20;;
65896;SDS011;52677;50.898;10.854;2023-04-24T11:26:47;3.33;;;2.13;;
65896;SDS011;52677;50.898;10.854;2023-04-24T11:28:47;3.03;;;2.03;;
65896;SDS011;52677;50.898;10.854;2023-04-24T11:30:49;3.35;;;2.13;;
65896;SDS011;52677;50.898;10.854;2023-04-24T11:32:52;4.72;;;2.53;;
65896;SDS011;52677;50.898;10.854;2023-04-24T11:34:54;4.07;;;2.08;;
65896;SDS011;52677;50.898;10.854;2023-04-24T11:36:56;2.75;;;2.20;;
65896;SDS011;52677;50.898;10.854;2023-04-24T11:38:57;3.22;;;2.10;;
65896;SDS011;52677;50.898;10.854;2023-04-24T11:40:57;3.33;;;2.20;;
65896;SDS011;52677;50.898;10.854;2023-04-24T11:43:00;7.93;;;3.17;;
65896;SDS011;52677;50.898;10.854;2023-04-24T11:45:00;13.00;;;6.32;;
65896;SDS011;52677;50.898;10.854;2023-04-24T11:47:02;4.25;;;2.78;;
65896;SDS011;52677;50.898;10.854;2023-04-24T11:49:04;12.18;;;6.32;;
65896;SDS011;52677;50.898;10.854;2023-04-24T11:51:05;9.52;;;5.93;;
65896;SDS011;52677;50.898;10.854;2023-04-24T11:53:06;2.65;;;2.25;;
65896;SDS011;52677;50.898;10.854;2023-04-24T11:57:20;3.35;;;2.10;;
65896;SDS011;52677;50.898;10.854;2023-04-24T11:59:21;2.88;;;2.30;;
65896;SDS011;52677;50.898;10.854;2023-04-24T12:01:22;3.45;;;2.63;;
65896;SDS011;52677;50.898;10.854;2023-04-24T12:03:23;4.50;;;3.72;;
65896;SDS011;52677;50.898;10.854;2023-04-24T12:05:24;2.90;;;1.92;;
65896;SDS011;52677;50.898;10.854;2023-04-24T12:07:25;2.47;;;2.10;;
65896;SDS011;52677;50.898;10.854;2023-04-24T12:09:26;2.42;;;1.70;;
65896;SDS011;52677;50.898;10.854;2023-04-24T12:11:26;2.40;;;1.80;;
65896;SDS011;52677;50.898;10.854;2023-04-24T12:13:27;3.08;;;1.85;;